sensor_id;sensor_type;location;lat;lon;timestamp;temperature;humidity
21672;DHT22;10997;52.242;8.168;2023-04-09T00:02:16;5.30;99.90
21672;DHT22;10997;52.242;8.168;2023-04-09T00:07:17;5.10;99.90
21672;DHT22;10997;52.242;8.168;2023-04-09T00:12:17;5.00;99.90
21672;DHT22;10997;52.242;8.168;2023-04-09T00:17:18;4.90;99.90
21672;DHT22;10997;52.242;8.168;2023-04-09T00:22:19;4.90;99.90
21672;DHT22;10997;52.242;8.168;2023-04-09T00:27:19;4.80;99.90
21672;DHT22;10997;52.242;8.168;2023-04-09T00:32:20;4.70;99.90
21672;DHT22;10997;52.242;8.168;2023-04-09T00:37:20;4.60;99.90
21672;DHT22;10997;52.242;8.168;2023-04-09T00:42:21;4.50;99.90
21672;DHT22;10997;52.242;8.168;2023-04-09T00:47:22;4.40;99.90
21672;DHT22;10997;52.242;8.168;2023-04-09T00:52:23;4.30;99.90
21672;DHT22;10997;52.242;8.168;2023-04-09T00:57:24;4.20;99.90
21672;DHT22;10997;52.242;8.168;2023-04-09T01:02:25;4.10;99.90
21672;DHT22;10997;52.242;8.168;2023-04-09T01:18:30;3.90;99.90
21672;DHT22;10997;52.242;8.168;2023-04-09T01:23:45;3.80;99.90
21672;DHT22;10997;52.242;8.168;2023-04-09T01:28:48;3.70;99.90
21672;DHT22;10997;52.242;8.168;2023-04-09T01:33:52;3.70;99.90
21672;DHT22;10997;52.242;8.168;2023-04-09T01:38:54;3.70;99.90
21672;DHT22;10997;52.242;8.168;2023-04-09T01:43:55;3.70;99.90
21672;DHT22;10997;52.242;8.168;2023-04-09T01:48:56;3.70;99.90
21672;DHT22;10997;52.242;8.168;2023-04-09T01:53:59;3.70;99.90
21672;DHT22;10997;52.242;8.168;2023-04-09T01:58:59;3.60;99.90
21672;DHT22;10997;52.242;8.168;2023-04-09T02:04:03;3.40;99.90
21672;DHT22;10997;52.242;8.168;2023-04-09T02:09:23;3.40;99.90
21672;DHT22;10997;52.242;8.168;2023-04-09T02:14:27;3.30;99.90
21672;DHT22;10997;52.242;8.168;2023-04-09T02:19:39;3.20;99.90
21672;DHT22;10997;52.242;8.168;2023-04-09T02:24:40;3.20;99.90
21672;DHT22;10997;52.242;8.168;2023-04-09T02:29:42;3.20;99.90
21672;DHT22;10997;52.242;8.168;2023-04-09T02:34:42;3.20;99.90
21672;DHT22;10997;52.242;8.168;2023-04-09T02:39:43;3.20;99.90
21672;DHT22;10997;52.242;8.168;2023-04-09T02:44:43;3.20;99.90
21672;DHT22;10997;52.242;8.168;2023-04-09T02:49:44;3.30;99.90
21672;DHT22;10997;52.242;8.168;2023-04-09T02:54:45;3.20;99.90
21672;DHT22;10997;52.242;8.168;2023-04-09T02:59:45;3.10;99.90
21672;DHT22;10997;52.242;8.168;2023-04-09T03:04:46;2.80;99.90
21672;DHT22;10997;52.242;8.168;2023-04-09T03:09:46;2.70;99.90
21672;DHT22;10997;52.242;8.168;2023-04-09T03:14:47;2.70;99.90
21672;DHT22;10997;52.242;8.168;2023-04-09T03:19:47;2.80;99.90
21672;DHT22;10997;52.242;8.168;2023-04-09T03:24:48;2.80;99.90
21672;DHT22;10997;52.242;8.168;2023-04-09T03:29:49;2.70;99.90
21672;DHT22;10997;52.242;8.168;2023-04-09T03:34:49;2.70;99.90
21672;DHT22;10997;52.242;8.168;2023-04-09T03:39:50;2.70;99.90
21672;DHT22;10997;52.242;8.168;2023-04-09T03:44:52;2.80;99.90
21672;DHT22;10997;52.242;8.168;2023-04-09T03:49:53;2.80;99.90
21672;DHT22;10997;52.242;8.168;2023-04-09T03:54:54;2.80;99.90
21672;DHT22;10997;52.242;8.168;2023-04-09T03:59:54;2.80;99.90
21672;DHT22;10997;52.242;8.168;2023-04-09T04:04:55;2.70;99.90
21672;DHT22;10997;52.242;8.168;2023-04-09T04:09:56;2.50;99.90
21672;DHT22;10997;52.242;8.168;2023-04-09T04:14:56;2.50;99.90
21672;DHT22;10997;52.242;8.168;2023-04-09T04:19:57;2.50;99.90
21672;DHT22;10997;52.242;8.168;2023-04-09T04:24:57;2.80;99.90
21672;DHT22;10997;52.242;8.168;2023-04-09T04:29:58;3.10;99.90
21672;DHT22;10997;52.242;8.168;2023-04-09T04:35:01;3.20;99.90
21672;DHT22;10997;52.242;8.168;2023-04-09T04:40:02;3.10;99.90
21672;DHT22;10997;52.242;8.168;2023-04-09T04:45:03;3.10;99.90
21672;DHT22;10997;52.242;8.168;2023-04-09T04:50:05;3.00;99.90
21672;DHT22;10997;52.242;8.168;2023-04-09T04:55:06;2.90;99.90
21672;DHT22;10997;52.242;8.168;2023-04-09T05:00:07;3.00;99.90
21672;DHT22;10997;52.242;8.168;2023-04-09T05:05:08;3.00;99.90
21672;DHT22;10997;52.242;8.168;2023-04-09T05:10:09;3.00;99.90
21672;DHT22;10997;52.242;8.168;2023-04-09T05:15:10;3.10;99.90
21672;DHT22;10997;52.242;8.168;2023-04-09T05:20:11;3.30;99.90
21672;DHT22;10997;52.242;8.168;2023-04-09T05:25:11;3.40;99.90
21672;DHT22;10997;52.242;8.168;2023-04-09T05:30:15;3.50;99.90
21672;DHT22;10997;52.242;8.168;2023-04-09T05:35:15;3.60;99.90
21672;DHT22;10997;52.242;8.168;2023-04-09T05:40:16;3.60;99.90
21672;DHT22;10997;52.242;8.168;2023-04-09T05:45:17;3.70;99.90
21672;DHT22;10997;52.242;8.168;2023-04-09T05:50:17;3.70;99.90
21672;DHT22;10997;52.242;8.168;2023-04-09T05:55:18;3.70;99.90
21672;DHT22;10997;52.242;8.168;2023-04-09T06:00:19;3.80;99.90
21672;DHT22;10997;52.242;8.168;2023-04-09T06:05:21;3.90;99.90
21672;DHT22;10997;52.242;8.168;2023-04-09T06:10:21;4.10;99.90
21672;DHT22;10997;52.242;8.168;2023-04-09T06:15:22;4.20;99.90
21672;DHT22;10997;52.242;8.168;2023-04-09T06:20:22;4.10;99.90
21672;DHT22;10997;52.242;8.168;2023-04-09T06:25:23;4.20;99.90
21672;DHT22;10997;52.242;8.168;2023-04-09T06:30:24;4.30;99.90
21672;DHT22;10997;52.242;8.168;2023-04-09T06:35:25;4.30;99.90
21672;DHT22;10997;52.242;8.168;2023-04-09T06:40:26;4.40;99.90
21672;DHT22;10997;52.242;8.168;2023-04-09T06:45:26;4.70;99.90
21672;DHT22;10997;52.242;8.168;2023-04-09T06:50:27;4.80;99.90
21672;DHT22;10997;52.242;8.168;2023-04-09T06:55:28;4.80;99.90
21672;DHT22;10997;52.242;8.168;2023-04-09T07:00:28;4.70;99.90
21672;DHT22;10997;52.242;8.168;2023-04-09T07:05:29;4.80;99.90
21672;DHT22;10997;52.242;8.168;2023-04-09T07:10:30;5.00;99.90
21672;DHT22;10997;52.242;8.168;2023-04-09T07:15:30;5.20;99.90
21672;DHT22;10997;52.242;8.168;2023-04-09T07:20:31;5.40;99.90
21672;DHT22;10997;52.242;8.168;2023-04-09T07:25:33;5.50;99.90
21672;DHT22;10997;52.242;8.168;2023-04-09T07:30:34;5.60;99.90
21672;DHT22;10997;52.242;8.168;2023-04-09T07:35:34;5.90;99.90
21672;DHT22;10997;52.242;8.168;2023-04-09T07:40:35;6.20;99.90
21672;DHT22;10997;52.242;8.168;2023-04-09T07:45:36;6.30;99.90
21672;DHT22;10997;52.242;8.168;2023-04-09T07:50:36;6.50;99.90
21672;DHT22;10997;52.242;8.168;2023-04-09T07:55:37;6.70;99.90
21672;DHT22;10997;52.242;8.168;2023-04-09T08:00:38;6.80;99.90
21672;DHT22;10997;52.242;8.168;2023-04-09T08:05:38;7.20;99.90
21672;DHT22;10997;52.242;8.168;2023-04-09T08:10:39;7.20;99.90
21672;DHT22;10997;52.242;8.168;2023-04-09T08:15:40;7.40;99.90
21672;DHT22;10997;52.242;8.168;2023-04-09T08:20:41;7.60;99.90
21672;DHT22;10997;52.242;8.168;2023-04-09T08:25:44;7.70;99.90
21672;DHT22;10997;52.242;8.168;2023-04-09T08:30:45;7.80;99.90
21672;DHT22;10997;52.242;8.168;2023-04-09T08:35:47;7.80;99.90
21672;DHT22;10997;52.242;8.168;2023-04-09T08:40:47;8.10;99.90
21672;DHT22;10997;52.242;8.168;2023-04-09T08:45:48;8.30;99.90
21672;DHT22;10997;52.242;8.168;2023-04-09T08:50:48;8.60;99.90
21672;DHT22;10997;52.242;8.168;2023-04-09T08:55:49;8.70;99.90
21672;DHT22;10997;52.242;8.168;2023-04-09T09:00:50;8.90;99.90
21672;DHT22;10997;52.242;8.168;2023-04-09T09:05:50;9.00;99.90
21672;DHT22;10997;52.242;8.168;2023-04-09T09:10:51;9.10;99.90
21672;DHT22;10997;52.242;8.168;2023-04-09T09:15:54;9.20;99.90
21672;DHT22;10997;52.242;8.168;2023-04-09T09:21:15;9.20;99.90
21672;DHT22;10997;52.242;8.168;2023-04-09T09:26:21;9.50;99.90
21672;DHT22;10997;52.242;8.168;2023-04-09T09:31:23;9.40;99.90
21672;DHT22;10997;52.242;8.168;2023-04-09T09:36:33;9.50;99.90
21672;DHT22;10997;52.242;8.168;2023-04-09T09:41:33;9.60;99.90
21672;DHT22;10997;52.242;8.168;2023-04-09T09:46:35;9.90;99.90
21672;DHT22;10997;52.242;8.168;2023-04-09T09:51:39;10.10;99.90
21672;DHT22;10997;52.242;8.168;2023-04-09T09:56:41;10.30;99.90
21672;DHT22;10997;52.242;8.168;2023-04-09T10:01:45;10.60;99.90
21672;DHT22;10997;52.242;8.168;2023-04-09T10:06:47;10.90;99.90
21672;DHT22;10997;52.242;8.168;2023-04-09T10:11:48;11.10;99.90
21672;DHT22;10997;52.242;8.168;2023-04-09T10:16:49;11.20;99.90
21672;DHT22;10997;52.242;8.168;2023-04-09T10:21:55;11.50;99.90
21672;DHT22;10997;52.242;8.168;2023-04-09T10:27:11;11.80;99.90
21672;DHT22;10997;52.242;8.168;2023-04-09T10:32:17;12.20;99.90
21672;DHT22;10997;52.242;8.168;2023-04-09T10:37:22;12.30;99.90
21672;DHT22;10997;52.242;8.168;2023-04-09T10:42:28;12.60;99.90
21672;DHT22;10997;52.242;8.168;2023-04-09T10:47:34;12.80;99.90
21672;DHT22;10997;52.242;8.168;2023-04-09T10:52:39;13.10;99.90
21672;DHT22;10997;52.242;8.168;2023-04-09T10:57:41;13.30;99.90
21672;DHT22;10997;52.242;8.168;2023-04-09T11:08:07;13.90;99.90
21672;DHT22;10997;52.242;8.168;2023-04-09T11:13:12;14.00;99.90
21672;DHT22;10997;52.242;8.168;2023-04-09T11:18:26;14.30;99.90
21672;DHT22;10997;52.242;8.168;2023-04-09T11:23:27;14.20;99.90
21672;DHT22;10997;52.242;8.168;2023-04-09T11:28:28;14.60;99.90
21672;DHT22;10997;52.242;8.168;2023-04-09T11:33:32;14.90;99.90
21672;DHT22;10997;52.242;8.168;2023-04-09T11:38:35;14.90;99.90
21672;DHT22;10997;52.242;8.168;2023-04-09T11:43:36;14.90;99.90
21672;DHT22;10997;52.242;8.168;2023-04-09T11:48:37;14.80;99.90
21672;DHT22;10997;52.242;8.168;2023-04-09T11:53:37;14.60;99.90
21672;DHT22;10997;52.242;8.168;2023-04-09T11:58:43;14.40;99.90
21672;DHT22;10997;52.242;8.168;2023-04-09T12:03:44;14.60;99.90
21672;DHT22;10997;52.242;8.168;2023-04-09T12:08:55;14.50;99.90
21672;DHT22;10997;52.242;8.168;2023-04-09T12:14:00;14.70;99.90
21672;DHT22;10997;52.242;8.168;2023-04-09T12:19:06;14.70;99.90
21672;DHT22;10997;52.242;8.168;2023-04-09T12:24:07;14.60;99.90
21672;DHT22;10997;52.242;8.168;2023-04-09T12:29:07;14.80;99.90
21672;DHT22;10997;52.242;8.168;2023-04-09T12:34:08;14.80;99.90
21672;DHT22;10997;52.242;8.168;2023-04-09T12:39:09;14.80;99.90
21672;DHT22;10997;52.242;8.168;2023-04-09T12:44:12;14.70;99.90
21672;DHT22;10997;52.242;8.168;2023-04-09T12:49:13;14.90;99.90
21672;DHT22;10997;52.242;8.168;2023-04-09T12:54:14;14.90;99.90
21672;DHT22;10997;52.242;8.168;2023-04-09T12:59:14;15.00;99.90
21672;DHT22;10997;52.242;8.168;2023-04-09T13:04:15;14.90;99.90
21672;DHT22;10997;52.242;8.168;2023-04-09T13:09:16;14.90;99.90
21672;DHT22;10997;52.242;8.168;2023-04-09T13:14:16;15.00;99.90
21672;DHT22;10997;52.242;8.168;2023-04-09T13:19:17;15.00;99.90
21672;DHT22;10997;52.242;8.168;2023-04-09T13:24:18;14.80;99.90
21672;DHT22;10997;52.242;8.168;2023-04-09T13:29:18;14.60;99.90
21672;DHT22;10997;52.242;8.168;2023-04-09T13:34:19;14.50;99.90
21672;DHT22;10997;52.242;8.168;2023-04-09T13:39:20;14.50;99.90
21672;DHT22;10997;52.242;8.168;2023-04-09T13:44:21;14.60;99.90
21672;DHT22;10997;52.242;8.168;2023-04-09T13:49:21;14.50;99.90
21672;DHT22;10997;52.242;8.168;2023-04-09T13:54:22;14.70;99.90
21672;DHT22;10997;52.242;8.168;2023-04-09T13:59:22;14.80;99.90
21672;DHT22;10997;52.242;8.168;2023-04-09T14:04:23;14.90;99.90
21672;DHT22;10997;52.242;8.168;2023-04-09T14:09:24;15.00;99.90
21672;DHT22;10997;52.242;8.168;2023-04-09T14:14:25;15.00;99.90
21672;DHT22;10997;52.242;8.168;2023-04-09T14:19:25;15.00;99.90
21672;DHT22;10997;52.242;8.168;2023-04-09T14:24:26;15.10;99.90
21672;DHT22;10997;52.242;8.168;2023-04-09T14:29:27;15.30;99.90
21672;DHT22;10997;52.242;8.168;2023-04-09T14:34:29;15.20;99.90
21672;DHT22;10997;52.242;8.168;2023-04-09T14:39:30;15.00;99.90
21672;DHT22;10997;52.242;8.168;2023-04-09T14:44:31;14.90;99.90
21672;DHT22;10997;52.242;8.168;2023-04-09T14:49:32;15.00;99.90
21672;DHT22;10997;52.242;8.168;2023-04-09T14:54:32;15.10;99.90
21672;DHT22;10997;52.242;8.168;2023-04-09T14:59:33;14.90;99.90
21672;DHT22;10997;52.242;8.168;2023-04-09T15:04:35;14.60;99.90
21672;DHT22;10997;52.242;8.168;2023-04-09T15:09:35;14.70;99.90
21672;DHT22;10997;52.242;8.168;2023-04-09T15:14:36;14.70;99.90
21672;DHT22;10997;52.242;8.168;2023-04-09T15:19:37;14.70;99.90
21672;DHT22;10997;52.242;8.168;2023-04-09T15:24:37;14.70;99.90
21672;DHT22;10997;52.242;8.168;2023-04-09T15:29:39;15.10;99.90
21672;DHT22;10997;52.242;8.168;2023-04-09T15:34:39;14.90;99.80
21672;DHT22;10997;52.242;8.168;2023-04-09T15:39:40;14.90;99.90
21672;DHT22;10997;52.242;8.168;2023-04-09T15:44:41;14.80;99.50
21672;DHT22;10997;52.242;8.168;2023-04-09T15:49:41;14.70;99.80
21672;DHT22;10997;52.242;8.168;2023-04-09T15:54:42;14.70;99.90
21672;DHT22;10997;52.242;8.168;2023-04-09T15:59:42;14.80;99.80
21672;DHT22;10997;52.242;8.168;2023-04-09T16:04:43;14.70;99.80
21672;DHT22;10997;52.242;8.168;2023-04-09T16:09:44;14.80;99.90
21672;DHT22;10997;52.242;8.168;2023-04-09T16:14:45;14.80;99.80
21672;DHT22;10997;52.242;8.168;2023-04-09T16:19:46;14.60;99.80
21672;DHT22;10997;52.242;8.168;2023-04-09T16:24:46;14.40;99.70
21672;DHT22;10997;52.242;8.168;2023-04-09T16:29:47;14.30;99.70
21672;DHT22;10997;52.242;8.168;2023-04-09T16:34:47;14.10;99.90
21672;DHT22;10997;52.242;8.168;2023-04-09T16:39:48;14.00;99.90
21672;DHT22;10997;52.242;8.168;2023-04-09T16:44:48;13.90;99.90
21672;DHT22;10997;52.242;8.168;2023-04-09T16:49:49;13.80;99.80
21672;DHT22;10997;52.242;8.168;2023-04-09T16:54:50;13.60;99.90
21672;DHT22;10997;52.242;8.168;2023-04-09T16:59:50;13.50;99.90
21672;DHT22;10997;52.242;8.168;2023-04-09T17:04:51;13.40;99.90
21672;DHT22;10997;52.242;8.168;2023-04-09T17:09:52;13.30;99.90
21672;DHT22;10997;52.242;8.168;2023-04-09T17:14:53;13.20;99.90
21672;DHT22;10997;52.242;8.168;2023-04-09T17:19:54;13.10;99.90
21672;DHT22;10997;52.242;8.168;2023-04-09T17:24:55;13.20;99.90
21672;DHT22;10997;52.242;8.168;2023-04-09T17:29:56;13.20;99.90
21672;DHT22;10997;52.242;8.168;2023-04-09T17:34:57;13.00;99.90
21672;DHT22;10997;52.242;8.168;2023-04-09T17:39:59;12.90;99.90
21672;DHT22;10997;52.242;8.168;2023-04-09T17:44:59;12.70;99.90
21672;DHT22;10997;52.242;8.168;2023-04-09T17:50:00;12.50;99.90
21672;DHT22;10997;52.242;8.168;2023-04-09T17:55:07;12.30;99.90
21672;DHT22;10997;52.242;8.168;2023-04-09T18:00:09;12.00;99.90
21672;DHT22;10997;52.242;8.168;2023-04-09T18:05:10;11.70;99.90
21672;DHT22;10997;52.242;8.168;2023-04-09T18:10:11;11.50;99.90
21672;DHT22;10997;52.242;8.168;2023-04-09T18:15:11;11.20;99.90
21672;DHT22;10997;52.242;8.168;2023-04-09T18:20:12;11.00;99.90
21672;DHT22;10997;52.242;8.168;2023-04-09T18:25:14;10.80;99.90
21672;DHT22;10997;52.242;8.168;2023-04-09T18:30:15;10.60;99.90
21672;DHT22;10997;52.242;8.168;2023-04-09T18:35:15;10.40;99.90
21672;DHT22;10997;52.242;8.168;2023-04-09T18:40:16;10.20;99.90
21672;DHT22;10997;52.242;8.168;2023-04-09T18:45:19;10.10;99.90
21672;DHT22;10997;52.242;8.168;2023-04-09T18:50:20;10.00;99.90
21672;DHT22;10997;52.242;8.168;2023-04-09T18:55:21;9.90;99.90
21672;DHT22;10997;52.242;8.168;2023-04-09T19:00:21;9.60;99.90
21672;DHT22;10997;52.242;8.168;2023-04-09T19:05:22;9.40;99.90
21672;DHT22;10997;52.242;8.168;2023-04-09T19:10:22;9.20;99.90
21672;DHT22;10997;52.242;8.168;2023-04-09T19:15:24;9.00;99.90
21672;DHT22;10997;52.242;8.168;2023-04-09T19:20:25;8.90;99.90
21672;DHT22;10997;52.242;8.168;2023-04-09T19:25:26;8.70;99.90
21672;DHT22;10997;52.242;8.168;2023-04-09T19:30:28;8.60;99.90
21672;DHT22;10997;52.242;8.168;2023-04-09T19:35:28;8.50;99.90
21672;DHT22;10997;52.242;8.168;2023-04-09T19:40:29;8.30;99.90
21672;DHT22;10997;52.242;8.168;2023-04-09T19:45:29;8.20;99.90
21672;DHT22;10997;52.242;8.168;2023-04-09T19:50:33;8.00;99.90
21672;DHT22;10997;52.242;8.168;2023-04-09T19:55:35;7.80;99.90
21672;DHT22;10997;52.242;8.168;2023-04-09T20:00:35;7.80;99.90
21672;DHT22;10997;52.242;8.168;2023-04-09T20:05:36;7.70;99.90
21672;DHT22;10997;52.242;8.168;2023-04-09T20:10:37;7.50;99.90
21672;DHT22;10997;52.242;8.168;2023-04-09T20:15:42;7.40;99.90
21672;DHT22;10997;52.242;8.168;2023-04-09T20:20:43;7.30;99.90
21672;DHT22;10997;52.242;8.168;2023-04-09T20:25:43;7.20;99.90
21672;DHT22;10997;52.242;8.168;2023-04-09T20:30:44;7.10;99.90
21672;DHT22;10997;52.242;8.168;2023-04-09T20:35:45;6.90;99.90
21672;DHT22;10997;52.242;8.168;2023-04-09T20:40:47;6.80;99.90
21672;DHT22;10997;52.242;8.168;2023-04-09T20:45:48;6.70;99.90
21672;DHT22;10997;52.242;8.168;2023-04-09T20:50:48;6.60;99.90
21672;DHT22;10997;52.242;8.168;2023-04-09T20:55:49;6.60;99.90
21672;DHT22;10997;52.242;8.168;2023-04-09T21:00:51;6.50;99.90
21672;DHT22;10997;52.242;8.168;2023-04-09T21:05:51;6.50;99.90
21672;DHT22;10997;52.242;8.168;2023-04-09T21:10:52;6.60;99.90
21672;DHT22;10997;52.242;8.168;2023-04-09T21:15:53;6.50;99.90
21672;DHT22;10997;52.242;8.168;2023-04-09T21:20:55;6.50;99.90
21672;DHT22;10997;52.242;8.168;2023-04-09T21:25:55;6.50;99.90
21672;DHT22;10997;52.242;8.168;2023-04-09T21:30:56;6.40;99.90
21672;DHT22;10997;52.242;8.168;2023-04-09T21:35:57;6.30;99.90
21672;DHT22;10997;52.242;8.168;2023-04-09T21:40:57;6.30;99.90
21672;DHT22;10997;52.242;8.168;2023-04-09T21:45:59;6.20;99.90
21672;DHT22;10997;52.242;8.168;2023-04-09T21:51:00;6.10;99.90
21672;DHT22;10997;52.242;8.168;2023-04-09T21:56:00;6.00;99.90
21672;DHT22;10997;52.242;8.168;2023-04-09T22:01:01;5.90;99.90
21672;DHT22;10997;52.242;8.168;2023-04-09T22:06:01;5.90;99.90
21672;DHT22;10997;52.242;8.168;2023-04-09T22:11:02;5.80;99.90
21672;DHT22;10997;52.242;8.168;2023-04-09T22:16:03;5.70;99.90
21672;DHT22;10997;52.242;8.168;2023-04-09T22:21:04;5.70;99.90
21672;DHT22;10997;52.242;8.168;2023-04-09T22:26:04;5.70;99.90
21672;DHT22;10997;52.242;8.168;2023-04-09T22:31:05;5.70;99.90
21672;DHT22;10997;52.242;8.168;2023-04-09T22:36:06;5.70;99.90
21672;DHT22;10997;52.242;8.168;2023-04-09T22:41:07;5.70;99.90
21672;DHT22;10997;52.242;8.168;2023-04-09T22:46:08;5.80;99.90
21672;DHT22;10997;52.242;8.168;2023-04-09T22:51:08;5.80;99.90
21672;DHT22;10997;52.242;8.168;2023-04-09T22:56:09;5.80;99.90
21672;DHT22;10997;52.242;8.168;2023-04-09T23:01:09;5.80;99.90
21672;DHT22;10997;52.242;8.168;2023-04-09T23:06:10;5.70;99.90
21672;DHT22;10997;52.242;8.168;2023-04-09T23:11:10;5.60;99.90
21672;DHT22;10997;52.242;8.168;2023-04-09T23:16:12;5.60;99.90
21672;DHT22;10997;52.242;8.168;2023-04-09T23:21:12;5.50;99.90
21672;DHT22;10997;52.242;8.168;2023-04-09T23:26:13;5.50;99.90
21672;DHT22;10997;52.242;8.168;2023-04-09T23:31:13;5.40;99.90
21672;DHT22;10997;52.242;8.168;2023-04-09T23:36:15;5.40;99.90
21672;DHT22;10997;52.242;8.168;2023-04-09T23:41:16;5.30;99.90
21672;DHT22;10997;52.242;8.168;2023-04-09T23:46:16;5.30;99.90
21672;DHT22;10997;52.242;8.168;2023-04-09T23:51:18;5.30;99.90
21672;DHT22;10997;52.242;8.168;2023-04-09T23:56:18;5.20;99.90
